createdAt,value
2022-12-04T00:01:30.152Z,11.35
2022-12-04T00:04:01.036Z,8.20
2022-12-04T00:06:31.866Z,7.68
2022-12-04T00:09:01.615Z,9.15
2022-12-04T00:14:07.155Z,7.20
2022-12-04T00:16:36.523Z,9.90
2022-12-04T00:19:06.181Z,10.13
2022-12-04T00:21:38.999Z,7.80
2022-12-04T00:24:08.718Z,6.65
2022-12-04T00:26:38.238Z,6.88
2022-12-04T00:29:08.861Z,9.40
2022-12-04T00:31:39.554Z,6.95
2022-12-04T00:34:10.748Z,6.70
2022-12-04T00:36:51.725Z,6.93
2022-12-04T00:39:26.851Z,8.48
2022-12-04T00:41:55.815Z,9.18
2022-12-04T00:44:27.410Z,7.93
2022-12-04T00:46:57.974Z,8.00
2022-12-04T00:49:28.220Z,8.07
2022-12-04T00:51:58.699Z,7.38
2022-12-04T00:54:32.214Z,9.60
2022-12-04T00:57:02.675Z,9.57
2022-12-04T00:59:33.311Z,10.68
2022-12-04T01:02:03.707Z,7.65
2022-12-04T01:04:37.911Z,8.60
2022-12-04T01:07:12.595Z,6.95
2022-12-04T01:09:45.351Z,7.57
2022-12-04T01:12:20.713Z,6.47
2022-12-04T01:14:53.046Z,10.75
2022-12-04T01:17:21.747Z,7.13
2022-12-04T01:19:53.748Z,7.07
2022-12-04T01:22:27.389Z,6.78
2022-12-04T01:24:58.405Z,9.02
2022-12-04T01:29:58.939Z,7.55
2022-12-04T01:32:30.781Z,7.45
2022-12-04T01:37:35.117Z,6.55
2022-12-04T01:40:07.064Z,7.68
2022-12-04T01:42:39.653Z,7.85
2022-12-04T01:45:41.096Z,10.98
2022-12-04T01:48:23.087Z,11.07
2022-12-04T01:51:01.553Z,6.97
2022-12-04T01:53:41.124Z,11.32
2022-12-04T01:56:12.165Z,7.65
2022-12-04T01:58:49.510Z,11.52
2022-12-04T02:01:19.949Z,9.75
2022-12-04T02:03:51.289Z,11.15
2022-12-04T02:06:26.329Z,10.32
2022-12-04T02:08:59.368Z,9.13
2022-12-04T02:11:37.868Z,9.20
2022-12-04T02:14:18.452Z,9.43
2022-12-04T02:17:01.119Z,11.80
2022-12-04T02:19:49.281Z,10.75
2022-12-04T02:22:31.263Z,5.53
2022-12-04T02:25:12.700Z,8.70
2022-12-04T02:28:04.139Z,9.82
2022-12-04T02:30:37.074Z,7.13
2022-12-04T02:33:21.244Z,11.80
2022-12-04T02:35:57.116Z,8.10
2022-12-04T02:38:32.149Z,7.63
2022-12-04T02:41:07.873Z,14.10
2022-12-04T02:43:44.437Z,8.27
2022-12-04T02:46:18.341Z,11.02
2022-12-04T02:48:52.104Z,10.80
2022-12-04T02:51:25.125Z,12.38
2022-12-04T02:53:58.182Z,7.55
2022-12-04T02:56:29.087Z,7.25
2022-12-04T02:59:05.457Z,6.60
2022-12-04T03:01:37.686Z,9.70
2022-12-04T03:04:13.720Z,11.90
2022-12-04T03:06:45.547Z,8.48
2022-12-04T03:09:19.863Z,10.73
2022-12-04T03:11:55.300Z,10.88
2022-12-04T03:14:28.999Z,8.52
2022-12-04T03:17:02.597Z,8.10
2022-12-04T03:19:37.749Z,5.78
2022-12-04T03:22:10.783Z,10.18
2022-12-04T03:24:41.946Z,8.00
2022-12-04T03:27:19.783Z,9.38
2022-12-04T03:29:58.472Z,9.88
2022-12-04T03:32:34.770Z,7.13
2022-12-04T03:35:07.898Z,7.53
2022-12-04T03:37:40.761Z,8.27
2022-12-04T03:40:18.836Z,9.07
2022-12-04T03:42:51.020Z,7.30
2022-12-04T03:45:27.114Z,13.70
2022-12-04T03:48:02.783Z,10.55
2022-12-04T03:50:38.075Z,10.82
2022-12-04T03:53:13.972Z,7.85
2022-12-04T03:55:48.215Z,9.25
2022-12-04T03:58:23.292Z,8.75
2022-12-04T04:00:55.183Z,8.65
2022-12-04T04:03:28.510Z,10.90
2022-12-04T04:06:02.398Z,11.38
2022-12-04T04:08:35.482Z,12.88
2022-12-04T04:11:13.463Z,6.30
2022-12-04T04:14:05.135Z,11.32
2022-12-04T04:16:56.201Z,11.45
2022-12-04T04:19:47.210Z,8.25
2022-12-04T04:22:35.848Z,10.98
2022-12-04T04:25:08.141Z,14.57
2022-12-04T04:27:36.774Z,7.88
2022-12-04T04:30:10.437Z,9.10
2022-12-04T04:32:47.345Z,7.63
2022-12-04T04:35:21.997Z,9.85
2022-12-04T04:37:57.727Z,7.75
2022-12-04T04:40:34.319Z,8.98
2022-12-04T04:43:09.646Z,8.55
2022-12-04T04:45:42.635Z,5.85
2022-12-04T04:48:16.255Z,8.02
2022-12-04T04:50:46.157Z,6.85
2022-12-04T04:53:19.603Z,9.13
2022-12-04T04:55:51.403Z,9.27
2022-12-04T04:58:23.306Z,11.02
2022-12-04T05:00:58.172Z,8.63
2022-12-04T05:03:28.912Z,7.75
2022-12-04T05:05:57.348Z,9.88
2022-12-04T05:08:28.731Z,9.60
2022-12-04T05:10:57.050Z,10.20
2022-12-04T05:13:25.587Z,8.75
2022-12-04T05:16:00.160Z,8.25
2022-12-04T05:18:30.759Z,10.63
2022-12-04T05:20:58.384Z,10.30
2022-12-04T05:23:29.006Z,9.15
2022-12-04T05:26:00.919Z,5.85
2022-12-04T05:28:29.154Z,9.52
2022-12-04T05:30:57.935Z,13.70
2022-12-04T05:33:26.134Z,15.88
2022-12-04T05:36:00.053Z,7.03
2022-12-04T05:38:30.445Z,7.93
2022-12-04T05:40:59.645Z,15.80
2022-12-04T05:43:30.498Z,8.43
2022-12-04T05:46:02.096Z,10.25
2022-12-04T05:48:31.034Z,10.68
2022-12-04T05:51:00.652Z,12.73
2022-12-04T05:53:29.240Z,10.77
2022-12-04T05:55:58.742Z,9.30
2022-12-04T05:58:27.453Z,7.15
2022-12-04T06:00:55.923Z,11.23
2022-12-04T06:03:24.470Z,8.68
2022-12-04T06:05:52.631Z,10.15
2022-12-04T06:08:23.156Z,7.97
2022-12-04T06:10:52.814Z,6.22
2022-12-04T06:13:21.681Z,8.18
2022-12-04T06:15:49.991Z,5.47
2022-12-04T06:18:18.597Z,6.85
2022-12-04T06:20:47.378Z,6.33
2022-12-04T06:23:15.664Z,9.30
2022-12-04T06:25:45.627Z,8.23
2022-12-04T06:28:16.618Z,4.53
2022-12-04T06:30:44.914Z,8.00
2022-12-04T06:33:13.241Z,12.48
2022-12-04T06:35:41.462Z,8.45
2022-12-04T06:38:09.599Z,12.82
2022-12-04T06:40:40.705Z,7.22
2022-12-04T06:43:10.302Z,8.00
2022-12-04T06:48:08.013Z,7.35
2022-12-04T06:50:36.476Z,7.13
2022-12-04T06:53:08.314Z,6.90
2022-12-04T06:55:38.237Z,9.60
2022-12-04T06:58:06.638Z,7.68
2022-12-04T07:03:05.560Z,9.20
2022-12-04T07:05:34.031Z,8.75
2022-12-04T07:08:02.672Z,5.95
2022-12-04T07:13:02.900Z,7.45
2022-12-04T07:15:32.063Z,8.30
2022-12-04T07:18:02.639Z,8.20
2022-12-04T07:20:31.425Z,8.65
2022-12-04T07:23:05.551Z,9.43
2022-12-04T07:25:41.187Z,8.10
2022-12-04T07:28:11.276Z,6.72
2022-12-04T07:30:40.213Z,7.47
2022-12-04T07:33:09.921Z,9.10
2022-12-04T07:35:40.160Z,7.22
2022-12-04T07:38:08.608Z,7.18
2022-12-04T07:43:06.756Z,4.93
2022-12-04T07:45:35.512Z,8.88
2022-12-04T07:48:05.137Z,8.50
2022-12-04T07:50:37.306Z,8.07
2022-12-04T07:53:05.967Z,6.93
2022-12-04T07:55:36.777Z,10.73
2022-12-04T07:58:05.411Z,6.93
2022-12-04T08:00:33.849Z,12.15
2022-12-04T08:03:02.792Z,6.90
2022-12-04T08:05:31.102Z,7.83
2022-12-04T08:08:04.375Z,9.68
2022-12-04T08:10:32.891Z,8.70
2022-12-04T08:13:00.981Z,7.97
2022-12-04T08:15:29.076Z,6.82
2022-12-04T08:18:03.554Z,7.07
2022-12-04T08:20:34.242Z,9.02
2022-12-04T08:23:03.914Z,7.97
2022-12-04T08:25:32.300Z,6.40
2022-12-04T08:28:00.649Z,8.27
2022-12-04T08:30:29.294Z,7.80
2022-12-04T08:32:58.613Z,6.68
2022-12-04T08:35:26.944Z,7.03
2022-12-04T08:37:55.699Z,7.90
2022-12-04T08:40:25.765Z,12.13
2022-12-04T08:42:54.192Z,8.38
2022-12-04T08:45:23.392Z,8.35
2022-12-04T08:47:52.710Z,8.25
2022-12-04T08:50:21.312Z,8.85
2022-12-04T08:52:49.494Z,10.40
2022-12-04T08:55:18.512Z,8.23
2022-12-04T08:58:13.347Z,7.32
2022-12-04T09:00:43.536Z,7.50
2022-12-04T09:03:14.878Z,7.50
2022-12-04T09:05:43.304Z,13.48
2022-12-04T09:08:12.482Z,6.57
2022-12-04T09:10:45.928Z,7.80
2022-12-04T09:13:16.267Z,8.65
2022-12-04T09:15:46.982Z,11.15
2022-12-04T09:18:15.326Z,9.98
2022-12-04T09:20:43.978Z,8.68
2022-12-04T09:23:12.502Z,11.88
2022-12-04T09:25:41.004Z,8.80
2022-12-04T09:28:13.691Z,10.75
2022-12-04T09:30:43.533Z,7.70
2022-12-04T09:35:41.462Z,12.02
2022-12-04T09:38:09.789Z,11.23
2022-12-04T09:40:49.600Z,9.80
2022-12-04T09:46:01.811Z,12.75
2022-12-04T09:48:35.417Z,10.30
2022-12-04T09:51:05.809Z,12.35
2022-12-04T09:53:44.533Z,8.00
2022-12-04T09:56:16.187Z,15.20
2022-12-04T09:58:53.545Z,9.95
2022-12-04T10:01:33.109Z,12.55
2022-12-04T10:04:06.153Z,13.98
2022-12-04T10:06:41.371Z,10.07
2022-12-04T10:09:18.742Z,11.57
2022-12-04T10:11:54.904Z,9.43
2022-12-04T10:14:46.614Z,14.82
2022-12-04T10:17:32.965Z,9.90
2022-12-04T10:20:10.216Z,12.25
2022-12-04T10:22:49.466Z,14.77
2022-12-04T10:25:21.703Z,10.43
2022-12-04T10:27:54.820Z,14.00
2022-12-04T10:30:33.726Z,9.73
2022-12-04T10:33:14.560Z,11.17
2022-12-04T10:35:47.004Z,9.88
2022-12-04T10:38:29.484Z,15.63
2022-12-04T10:41:01.311Z,7.80
2022-12-04T10:43:37.675Z,14.38
2022-12-04T10:46:08.943Z,9.93
2022-12-04T10:48:41.667Z,15.98
2022-12-04T10:51:15.507Z,13.98
2022-12-04T10:53:45.388Z,15.43
2022-12-04T10:56:18.189Z,11.63
2022-12-04T10:58:56.804Z,15.30
2022-12-04T11:01:25.943Z,15.18
2022-12-04T11:04:03.697Z,15.38
2022-12-04T11:06:34.710Z,10.13
2022-12-04T11:09:05.214Z,13.00
2022-12-04T11:11:39.446Z,12.40
2022-12-04T11:14:15.886Z,13.77
2022-12-04T11:16:46.349Z,15.13
2022-12-04T11:19:27.752Z,11.20
2022-12-04T11:21:58.742Z,16.70
2022-12-04T11:24:31.396Z,10.88
2022-12-04T11:27:01.492Z,10.98
2022-12-04T11:29:34.265Z,7.97
2022-12-04T11:32:07.802Z,13.40
2022-12-04T11:34:40.757Z,14.20
2022-12-04T11:37:21.303Z,12.75
2022-12-04T11:39:51.083Z,16.77
2022-12-04T11:42:25.278Z,14.68
2022-12-04T11:44:57.300Z,12.73
2022-12-04T11:47:28.718Z,10.80
2022-12-04T11:50:14.345Z,19.10
2022-12-04T11:52:59.919Z,14.40
2022-12-04T11:55:39.767Z,12.45
2022-12-04T11:58:23.878Z,11.25
2022-12-04T12:01:05.123Z,13.10
2022-12-04T12:03:41.429Z,12.45
2022-12-04T12:06:28.959Z,13.02
2022-12-04T12:09:09.896Z,12.75
2022-12-04T12:11:47.039Z,9.35
2022-12-04T12:14:25.259Z,12.70
2022-12-04T12:17:03.537Z,11.73
2022-12-04T12:20:06.512Z,11.25
2022-12-04T12:22:56.125Z,11.27
2022-12-04T12:25:31.975Z,17.30
2022-12-04T12:28:13.204Z,14.18
2022-12-04T12:31:02.475Z,13.63
2022-12-04T12:33:37.938Z,17.33
2022-12-04T12:36:10.002Z,11.60
2022-12-04T12:38:50.660Z,13.77
2022-12-04T12:41:23.106Z,15.75
2022-12-04T12:44:02.774Z,22.13
2022-12-04T12:49:05.436Z,10.50
2022-12-04T12:51:41.143Z,14.15
2022-12-04T12:54:26.238Z,13.27
2022-12-04T12:56:59.000Z,15.82
2022-12-04T12:59:29.527Z,15.23
2022-12-04T13:02:06.003Z,11.45
2022-12-04T13:04:42.867Z,13.07
2022-12-04T13:07:25.882Z,14.75
2022-12-04T13:10:03.975Z,19.58
2022-12-04T13:12:48.321Z,17.85
2022-12-04T13:15:18.277Z,18.02
2022-12-04T13:17:49.517Z,14.65
2022-12-04T13:20:24.472Z,24.10
2022-12-04T13:23:10.162Z,20.00
2022-12-04T13:25:53.723Z,16.23
2022-12-04T13:28:41.300Z,20.40
2022-12-04T13:31:21.579Z,12.15
2022-12-04T13:34:06.719Z,25.23
2022-12-04T13:36:57.729Z,16.88
2022-12-04T13:40:11.375Z,8.68
2022-12-04T13:42:43.593Z,16.13
2022-12-04T13:45:27.733Z,15.27
2022-12-04T13:48:02.527Z,17.58
2022-12-04T13:50:34.820Z,14.90
2022-12-04T13:53:03.753Z,17.00
2022-12-04T13:55:34.319Z,18.07
2022-12-04T13:58:26.875Z,17.23
2022-12-04T14:01:03.701Z,16.30
2022-12-04T14:03:34.939Z,13.43
2022-12-04T14:06:06.261Z,14.20
2022-12-04T14:08:41.801Z,17.85
2022-12-04T14:11:15.762Z,13.55
2022-12-04T14:13:57.051Z,17.48
2022-12-04T14:16:29.111Z,11.70
2022-12-04T14:18:59.649Z,12.77
2022-12-04T14:21:39.910Z,14.75
2022-12-04T14:24:29.840Z,18.40
2022-12-04T14:27:13.614Z,16.10
2022-12-04T14:29:56.531Z,12.77
2022-12-04T14:32:28.837Z,18.20
2022-12-04T14:35:24.928Z,12.95
2022-12-04T14:37:57.833Z,14.77
2022-12-04T14:40:30.506Z,11.50
2022-12-04T14:43:00.444Z,19.98
2022-12-04T14:45:38.471Z,14.55
2022-12-04T14:48:24.418Z,13.40
2022-12-04T14:51:06.487Z,16.42
2022-12-04T14:53:41.923Z,13.13
2022-12-04T14:56:33.827Z,13.52
2022-12-04T14:59:07.169Z,10.60
2022-12-04T15:01:39.827Z,19.92
2022-12-04T15:04:17.377Z,13.90
2022-12-04T15:06:50.861Z,17.98
2022-12-04T15:09:41.037Z,14.38
2022-12-04T15:12:36.023Z,16.83
2022-12-04T15:15:14.195Z,16.80
2022-12-04T15:17:45.636Z,17.58
2022-12-04T15:20:18.308Z,15.55
2022-12-04T15:22:46.986Z,12.38
2022-12-04T15:25:19.216Z,16.50
2022-12-04T15:27:50.493Z,18.13
2022-12-04T15:30:22.043Z,14.13
2022-12-04T15:32:54.760Z,12.68
2022-12-04T15:35:27.177Z,12.85
2022-12-04T15:37:56.160Z,21.73
2022-12-04T15:40:27.397Z,14.10
2022-12-04T15:42:56.207Z,14.88
2022-12-04T15:45:34.253Z,12.70
2022-12-04T15:48:05.559Z,12.82
2022-12-04T15:50:35.135Z,12.13
2022-12-04T15:53:08.268Z,17.98
2022-12-04T15:55:40.993Z,17.58
2022-12-04T15:58:19.404Z,13.35
2022-12-04T16:00:48.718Z,14.55
2022-12-04T16:03:26.834Z,21.13
2022-12-04T16:06:16.394Z,18.77
2022-12-04T16:08:46.886Z,13.88
2022-12-04T16:11:30.988Z,15.10
2022-12-04T16:14:16.690Z,15.07
2022-12-04T16:16:47.538Z,13.38
2022-12-04T16:19:23.492Z,21.33
2022-12-04T16:21:53.170Z,19.45
2022-12-04T16:24:24.028Z,10.27
2022-12-04T16:26:56.133Z,11.95
2022-12-04T16:29:24.962Z,14.75
2022-12-04T16:31:58.263Z,16.17
2022-12-04T16:34:34.124Z,15.27
2022-12-04T16:37:02.701Z,14.27
2022-12-04T16:39:31.161Z,24.45
2022-12-04T16:41:59.955Z,19.67
2022-12-04T16:44:32.314Z,15.00
2022-12-04T16:47:01.792Z,15.70
2022-12-04T16:49:33.989Z,15.25
2022-12-04T16:52:02.220Z,14.52
2022-12-04T16:54:33.039Z,15.57
2022-12-04T16:57:01.234Z,17.48
2022-12-04T16:59:31.902Z,10.68
2022-12-04T17:02:01.606Z,14.75
2022-12-04T17:04:30.803Z,14.13
2022-12-04T17:07:01.118Z,13.07
2022-12-04T17:09:30.006Z,13.80
2022-12-04T17:11:58.677Z,14.65
2022-12-04T17:14:27.310Z,19.33
2022-12-04T17:16:58.671Z,15.90
2022-12-04T17:19:27.413Z,19.45
2022-12-04T17:21:57.100Z,14.18
2022-12-04T17:24:27.270Z,14.00
2022-12-04T17:32:03.775Z,18.00
2022-12-04T17:34:32.241Z,13.85
2022-12-04T17:37:00.537Z,15.10
2022-12-04T17:39:30.907Z,15.88
2022-12-04T17:41:59.213Z,14.50
2022-12-04T17:44:28.424Z,12.52
2022-12-04T17:46:56.867Z,18.52
2022-12-04T17:49:25.705Z,15.75
2022-12-04T17:51:54.370Z,19.33
2022-12-04T17:54:23.883Z,15.30
2022-12-04T17:56:57.971Z,14.98
2022-12-04T17:59:27.816Z,17.67
2022-12-04T18:01:56.739Z,19.08
2022-12-04T18:04:26.671Z,12.23
2022-12-04T18:06:56.366Z,21.70
2022-12-04T18:09:24.821Z,16.60
2022-12-04T18:11:52.948Z,14.88
2022-12-04T18:14:23.709Z,19.98
2022-12-04T18:16:54.935Z,15.10
2022-12-04T18:19:28.232Z,11.95
2022-12-04T18:21:57.200Z,17.67
2022-12-04T18:24:27.260Z,12.88
2022-12-04T18:26:56.332Z,10.85
2022-12-04T18:29:26.830Z,12.75
2022-12-04T18:31:55.688Z,15.38
2022-12-04T18:34:24.903Z,17.95
2022-12-04T18:36:53.536Z,12.33
2022-12-04T18:39:24.642Z,18.77
2022-12-04T18:41:56.357Z,19.90
2022-12-04T18:44:27.516Z,16.85
2022-12-04T18:46:58.013Z,14.65
2022-12-04T18:49:26.929Z,18.40
2022-12-04T18:51:55.285Z,15.23
2022-12-04T18:54:25.453Z,16.20
2022-12-04T18:56:54.034Z,19.65
2022-12-04T18:59:24.750Z,14.95
2022-12-04T19:01:56.057Z,26.50
2022-12-04T19:04:26.997Z,20.40
2022-12-04T19:06:57.607Z,19.80
2022-12-04T19:10:02.043Z,11.27
2022-12-04T19:12:17.524Z,15.40
2022-12-04T19:14:47.187Z,23.15
2022-12-04T19:17:17.340Z,14.25
2022-12-04T19:19:45.894Z,14.93
2022-12-04T19:22:15.767Z,14.60
2022-12-04T19:24:44.732Z,19.83
2022-12-04T19:27:14.049Z,17.08
2022-12-04T19:29:44.844Z,17.70
2022-12-04T19:32:14.685Z,14.55
2022-12-04T19:34:44.464Z,17.52
2022-12-04T19:37:15.285Z,18.88
2022-12-04T19:39:44.190Z,17.92
2022-12-04T19:42:12.834Z,13.20
2022-12-04T19:44:49.627Z,16.23
2022-12-04T19:47:19.805Z,14.93
2022-12-04T19:49:50.446Z,16.02
2022-12-04T19:52:19.634Z,18.00
2022-12-04T19:54:48.657Z,15.93
2022-12-04T19:57:17.088Z,17.08
2022-12-04T19:59:46.990Z,14.52
2022-12-04T20:02:16.125Z,17.50
2022-12-04T20:04:45.929Z,17.48
2022-12-04T20:09:52.093Z,17.70
2022-12-04T20:12:21.477Z,17.05
2022-12-04T20:14:51.662Z,16.73
2022-12-04T20:17:19.767Z,15.98
2022-12-04T20:19:47.918Z,15.43
2022-12-04T20:22:20.203Z,14.85
2022-12-04T20:24:51.573Z,14.07
2022-12-04T20:27:21.508Z,14.98
2022-12-04T20:29:53.627Z,12.70
2022-12-04T20:32:22.050Z,12.43
2022-12-04T20:34:51.435Z,16.13
2022-12-04T20:37:21.441Z,16.88
2022-12-04T20:39:49.895Z,13.52
2022-12-04T20:42:20.950Z,16.70
2022-12-04T20:44:52.115Z,17.13
2022-12-04T20:47:22.507Z,12.50
2022-12-04T20:49:51.076Z,22.23
2022-12-04T20:54:52.366Z,12.02
2022-12-04T20:57:22.803Z,20.42
2022-12-04T20:59:50.941Z,16.05
2022-12-04T21:02:19.268Z,15.50
2022-12-04T21:04:47.593Z,13.05
2022-12-04T21:07:15.852Z,13.90
2022-12-04T21:09:45.639Z,14.65
2022-12-04T21:12:32.316Z,16.20
2022-12-04T21:15:18.961Z,17.52
2022-12-04T21:17:48.395Z,21.75
2022-12-04T21:20:18.569Z,11.70
2022-12-04T21:22:49.022Z,17.80
2022-12-04T21:25:20.678Z,18.25
2022-12-04T21:27:54.430Z,15.45
2022-12-04T21:30:24.162Z,15.73
2022-12-04T21:32:52.548Z,15.02
2022-12-04T21:35:21.269Z,16.25
2022-12-04T21:37:50.082Z,13.85
2022-12-04T21:40:20.373Z,12.55
2022-12-04T21:42:48.658Z,16.83
2022-12-04T21:45:18.621Z,19.55
2022-12-04T21:47:47.235Z,15.57
2022-12-04T21:50:17.956Z,18.53
2022-12-04T21:52:46.480Z,18.38
2022-12-04T21:55:15.076Z,18.30
2022-12-04T21:57:47.373Z,11.45
2022-12-04T22:00:19.332Z,22.65
2022-12-04T22:02:47.716Z,18.70
2022-12-04T22:05:16.398Z,14.60
2022-12-04T22:07:47.893Z,16.00
2022-12-04T22:10:17.963Z,17.95
2022-12-04T22:12:50.020Z,16.88
2022-12-04T22:15:23.041Z,17.02
2022-12-04T22:17:51.643Z,17.55
2022-12-04T22:20:21.126Z,21.50
2022-12-04T22:22:51.044Z,18.52
2022-12-04T22:25:19.831Z,24.45
2022-12-04T22:27:50.832Z,15.50
2022-12-04T22:30:23.103Z,19.58
2022-12-04T22:32:55.814Z,14.45
2022-12-04T22:35:25.714Z,18.38
2022-12-04T22:37:54.708Z,16.05
2022-12-04T22:40:22.793Z,23.73
2022-12-04T22:42:52.697Z,16.73
2022-12-04T22:45:22.080Z,15.18
2022-12-04T22:47:50.307Z,14.00
2022-12-04T22:50:18.725Z,22.13
2022-12-04T22:52:47.968Z,20.25
2022-12-04T22:55:16.481Z,18.80
2022-12-04T22:57:46.282Z,14.00
2022-12-04T23:00:16.729Z,26.08
2022-12-04T23:02:45.811Z,16.92
2022-12-04T23:05:15.479Z,11.70
2022-12-04T23:07:45.316Z,19.13
2022-12-04T23:10:15.552Z,24.50
2022-12-04T23:12:43.998Z,20.98
2022-12-04T23:15:13.155Z,16.45
2022-12-04T23:17:42.964Z,15.20
2022-12-04T23:22:40.314Z,13.50
2022-12-04T23:25:10.762Z,14.77
2022-12-04T23:27:39.231Z,21.75
2022-12-04T23:30:09.130Z,17.27
2022-12-04T23:32:38.119Z,20.42
2022-12-04T23:35:08.297Z,15.55
2022-12-04T23:38:35.156Z,16.52
2022-12-04T23:41:06.368Z,13.00
2022-12-04T23:43:36.521Z,16.48
2022-12-04T23:46:10.941Z,15.77
2022-12-04T23:48:43.830Z,10.77
2022-12-04T23:51:15.844Z,26.75
2022-12-04T23:53:46.944Z,20.27
2022-12-04T23:56:17.333Z,18.60
2022-12-04T23:58:47.329Z,16.25
